Island Park, ID

2:51 PM MDT on March 30, 2015 (GMT -0600)
RAWS | | Change Station
CLOSE
Current Station
Personal Weather Station
Location: Island Park, ID
Elevation: 6336 ft
Nearby Weather Stations

Elev 6336 ft 44.42 °N, 111.37 °W | Updated 57 minutes ago

Clear
Clear
56 °F
Feels Like 56 °F
N
8
Wind Variable Wind from WSW
Gusts 12.0 mph

Today
High -- | Low -- °F
--% Chance of Precip.
Yesterday
High -- | Low -- °F
Precip. -- in
7:10 AM 7:50 PM
Waxing Gibbous, 82% visible
Pressure 30.22 in
Visibility -9999.0 miles
Clouds
Dew Point 22 °F
Humidity 26%
Rainfall in
Snow Depth Not available.
UV Not available.
Pollen 9.80 out of 12
Air Quality Not available.
Flu Activity Not available.
METAR KP60 301956Z AUTO 30007KT 270V360 10/M09 A3026 RMK AO1 SLP232 T01001089 $

More Conditions Fewer Conditions

Pressure 30.22 in
Visibility -9999.0 miles
Clouds
Dew Point 22 °F
Humidity 26%
Rainfall in
Snow Depth Not available.
UV Not available.
Pollen 9.80 out of 12
Air Quality Not available.
Flu Activity Not available.
METAR KP60 301956Z AUTO 30007KT 270V360 10/M09 A3026 RMK AO1 SLP232 T01001089 $

More Conditions Fewer Conditions

10-Day Weather Forecast

Almanac

Astronomy

Mar. 30, 2015 Rise Set
Actual Time
Civil Twilight
Nautical Twilight
Astronomical Twilight
Moon
Length of Visible Light
Length of Day
Tomorrow will be .
, % of the Moon is Illuminated

Today's Extremes

State Highs State Lows

Community

WunderPhotos

Upload Photos

1,809,584 photos uploaded!

WunderBlogs® & News

Nearby

Air Quality

  Air Quality AQ Index Pollutant
Not available.

Snow Depth

Station Depth Elevation

Earthquake Activity

City Distance Mag. Time & Date
Minimum magnitude displayed is 2.5.

Coastal Water Temperatures

Place Temperature

Stations

Nearby Weather Stations

Station Location Temp. Windchill Dew Point Humidity Wind Precip. Elev Updated Type